createdAt,value
2018-03-02T00:02:19.694Z,-7.80
2018-03-02T00:04:46.095Z,-7.50
2018-03-02T00:07:13.275Z,-7.90
2018-03-02T00:09:39.750Z,-8.00
2018-03-02T00:12:06.162Z,-8.20
2018-03-02T00:14:32.542Z,-8.10
2018-03-02T00:16:59.652Z,-7.80
2018-03-02T00:19:26.154Z,-7.80
2018-03-02T00:21:52.510Z,-7.90
2018-03-02T00:24:18.890Z,-7.90
2018-03-02T00:26:45.982Z,-8.00
2018-03-02T00:29:12.413Z,-8.10
2018-03-02T00:31:38.797Z,-8.00
2018-03-02T00:34:05.973Z,-8.10
2018-03-02T00:36:32.398Z,-8.10
2018-03-02T00:38:58.767Z,-7.80
2018-03-02T00:41:25.139Z,-8.00
2018-03-02T00:43:52.991Z,-7.70
2018-03-02T00:46:19.362Z,-7.70
2018-03-02T00:48:46.463Z,-7.80
2018-03-02T00:51:12.852Z,-7.80
2018-03-02T00:53:39.242Z,-8.00
2018-03-02T00:56:07.084Z,-8.50
2018-03-02T00:58:33.438Z,-8.50
2018-03-02T01:00:59.802Z,-8.20
2018-03-02T01:03:26.176Z,-8.30
2018-03-02T01:05:52.536Z,-8.00
2018-03-02T01:08:18.934Z,-8.00
2018-03-02T01:10:45.335Z,-8.20
2018-03-02T01:13:11.700Z,-8.20
2018-03-02T01:15:38.124Z,-7.60
2018-03-02T01:18:04.547Z,-7.50
2018-03-02T01:20:30.928Z,-8.00
2018-03-02T01:22:57.295Z,-8.20
2018-03-02T01:25:23.648Z,-8.50
2018-03-02T01:27:50.027Z,-8.30
2018-03-02T01:30:17.131Z,-8.00
2018-03-02T01:32:43.494Z,-8.10
2018-03-02T01:35:09.892Z,-8.30
2018-03-02T01:37:36.306Z,-7.90
2018-03-02T01:40:02.704Z,-8.00
2018-03-02T01:42:29.833Z,-8.30
2018-03-02T01:44:56.280Z,-8.30
2018-03-02T01:47:22.666Z,-8.00
2018-03-02T01:49:49.040Z,-7.70
2018-03-02T01:52:15.402Z,-7.60
2018-03-02T01:54:42.528Z,-7.90
2018-03-02T01:57:08.874Z,-7.90
2018-03-02T01:59:35.234Z,-8.10
2018-03-02T02:02:01.617Z,-7.90
2018-03-02T02:04:28.739Z,-8.00
2018-03-02T02:06:55.100Z,-8.00
2018-03-02T02:09:21.448Z,-7.90
2018-03-02T02:11:48.551Z,-8.10
2018-03-02T02:14:14.936Z,-8.10
2018-03-02T02:16:41.338Z,-8.30
2018-03-02T02:19:08.651Z,-8.30
2018-03-02T02:21:35.035Z,-8.30
2018-03-02T02:24:02.161Z,-8.30
2018-03-02T02:26:28.581Z,-8.30
2018-03-02T02:28:55.006Z,-8.10
2018-03-02T02:31:21.363Z,-8.30
2018-03-02T02:33:47.750Z,-8.20
2018-03-02T02:36:14.124Z,-7.90
2018-03-02T02:38:40.489Z,-8.10
2018-03-02T02:41:06.852Z,-8.30
2018-03-02T02:43:33.250Z,-7.90
2018-03-02T02:46:00.383Z,-8.20
2018-03-02T02:48:27.485Z,-8.10
2018-03-02T02:50:53.850Z,-8.10
2018-03-02T02:53:20.275Z,-8.00
2018-03-02T02:55:46.627Z,-8.00
2018-03-02T02:58:13.000Z,-8.00
2018-03-02T03:00:39.372Z,-7.90
2018-03-02T03:03:05.760Z,-8.10
2018-03-02T03:05:32.140Z,-8.00
2018-03-02T03:07:58.499Z,-7.90
2018-03-02T03:10:24.874Z,-8.10
2018-03-02T03:12:51.257Z,-7.90
2018-03-02T03:15:18.351Z,-7.80
2018-03-02T03:17:44.776Z,-7.80
2018-03-02T03:20:11.144Z,-7.80
2018-03-02T03:22:37.526Z,-7.80
2018-03-02T03:25:03.944Z,-8.10
2018-03-02T03:27:30.443Z,-8.10
2018-03-02T03:29:57.604Z,-8.40
2018-03-02T03:32:24.842Z,-8.20
2018-03-02T03:34:51.239Z,-8.20
2018-03-02T03:37:17.644Z,-7.90
2018-03-02T03:39:44.738Z,-7.90
2018-03-02T03:42:11.115Z,-7.90
2018-03-02T03:44:38.218Z,-8.20
2018-03-02T03:47:04.586Z,-8.20
2018-03-02T03:49:31.687Z,-8.40
2018-03-02T03:51:58.030Z,-8.40
2018-03-02T03:54:24.402Z,-8.30
2018-03-02T03:56:51.512Z,-8.20
2018-03-02T03:59:17.894Z,-8.20
2018-03-02T04:01:44.252Z,-8.10
2018-03-02T04:04:10.636Z,-8.10
2018-03-02T04:06:37.753Z,-8.10
2018-03-02T04:09:04.152Z,-8.00
2018-03-02T04:11:30.494Z,-8.10
2018-03-02T04:13:56.869Z,-8.10
2018-03-02T04:16:23.987Z,-7.90
2018-03-02T04:18:50.407Z,-7.90
2018-03-02T04:21:16.789Z,-7.90
2018-03-02T04:23:43.894Z,-7.80
2018-03-02T04:26:10.255Z,-7.80
2018-03-02T04:28:36.640Z,-7.80
2018-03-02T04:31:03.022Z,-7.70
2018-03-02T04:33:42.426Z,-7.70
2018-03-02T04:36:08.828Z,-8.10
2018-03-02T04:38:35.203Z,-8.10
2018-03-02T04:41:03.736Z,-8.20
2018-03-02T04:43:30.088Z,-8.20
2018-03-02T04:45:56.463Z,-8.10
2018-03-02T04:48:23.600Z,-8.20
2018-03-02T04:50:49.971Z,-8.20
2018-03-02T04:53:17.071Z,-8.20
2018-03-02T04:55:43.600Z,-8.20
2018-03-02T04:58:09.976Z,-7.90
2018-03-02T05:00:37.063Z,-7.10
2018-03-02T05:03:03.430Z,-7.10
2018-03-02T05:05:29.807Z,-7.20
2018-03-02T05:07:56.177Z,-7.50
2018-03-02T05:10:22.546Z,-7.60
2018-03-02T05:12:49.663Z,-8.20
2018-03-02T05:15:16.014Z,-8.20
2018-03-02T05:17:42.375Z,-8.00
2018-03-02T05:20:08.740Z,-7.70
2018-03-02T05:22:35.089Z,-7.90
2018-03-02T05:25:01.466Z,-7.60
2018-03-02T05:27:27.904Z,-7.50
2018-03-02T05:29:54.281Z,-7.40
2018-03-02T05:32:20.647Z,-7.60
2018-03-02T05:34:47.753Z,-7.60
2018-03-02T05:37:14.133Z,-7.60
2018-03-02T05:39:41.230Z,-8.00
2018-03-02T05:42:07.603Z,-8.00
2018-03-02T05:44:34.860Z,-7.80
2018-03-02T05:47:01.991Z,-7.80
2018-03-02T05:49:29.098Z,-8.00
2018-03-02T05:51:55.462Z,-8.00
2018-03-02T05:54:21.832Z,-8.10
2018-03-02T05:56:48.958Z,-7.50
2018-03-02T05:59:16.071Z,-7.50
2018-03-02T06:01:42.504Z,-7.50
2018-03-02T06:04:09.000Z,-7.70
2018-03-02T06:06:35.372Z,-7.90
2018-03-02T06:09:01.790Z,-7.90
2018-03-02T06:11:28.234Z,-7.80
2018-03-02T06:13:54.586Z,-7.80
2018-03-02T06:16:21.949Z,-7.40
2018-03-02T06:18:49.152Z,-7.40
2018-03-02T06:21:15.571Z,-7.40
2018-03-02T06:23:42.015Z,-7.20
2018-03-02T06:26:08.411Z,-7.10
2018-03-02T06:28:35.543Z,-6.90
2018-03-02T06:31:01.964Z,-6.90
2018-03-02T06:33:28.372Z,-7.00
2018-03-02T06:35:54.798Z,-7.30
2018-03-02T06:38:21.206Z,-7.10
2018-03-02T06:40:47.595Z,-7.40
2018-03-02T06:43:13.984Z,-7.30
2018-03-02T06:45:40.346Z,-7.00
2018-03-02T06:48:06.821Z,-6.90
2018-03-02T06:50:33.232Z,-6.80
2018-03-02T06:53:00.357Z,-6.30
2018-03-02T06:55:26.795Z,-6.30
2018-03-02T06:57:53.150Z,-6.50
2018-03-02T07:00:20.272Z,-5.90
2018-03-02T07:02:46.637Z,-5.90
2018-03-02T07:05:13.029Z,-5.90
2018-03-02T07:07:39.417Z,-5.80
2018-03-02T07:10:05.804Z,-5.80
2018-03-02T07:12:32.180Z,-5.60
2018-03-02T07:14:58.564Z,-5.50
2018-03-02T07:17:24.990Z,-5.40
2018-03-02T07:19:51.334Z,-5.40
2018-03-02T07:22:17.706Z,-5.70
2018-03-02T07:24:44.139Z,-5.50
2018-03-02T07:27:11.259Z,-5.30
2018-03-02T07:29:38.381Z,-5.30
2018-03-02T07:32:04.775Z,-5.30
2018-03-02T07:34:31.921Z,-5.30
2018-03-02T07:36:58.292Z,-5.30
2018-03-02T07:39:24.712Z,-5.70
2018-03-02T07:41:51.068Z,-6.20
2018-03-02T07:44:17.486Z,-5.90
2018-03-02T07:46:43.876Z,-5.40
2018-03-02T07:49:10.279Z,-5.30
2018-03-02T07:51:36.630Z,-5.70
2018-03-02T07:54:03.735Z,-5.60
2018-03-02T07:56:30.103Z,-5.60
2018-03-02T07:58:57.274Z,-5.40
2018-03-02T08:01:24.015Z,-5.40
2018-03-02T08:03:50.383Z,-5.50
2018-03-02T08:06:16.985Z,-5.40
2018-03-02T08:08:43.459Z,-5.40
2018-03-02T08:11:09.846Z,-5.50
2018-03-02T08:13:40.343Z,-5.30
2018-03-02T08:16:06.707Z,-5.40
2018-03-02T08:18:33.819Z,-5.70
2018-03-02T08:21:00.187Z,-5.70
2018-03-02T08:23:26.590Z,-5.40
2018-03-02T08:25:53.017Z,-5.10
2018-03-02T08:28:19.442Z,-5.10
2018-03-02T08:30:47.281Z,-6.10
2018-03-02T08:33:13.650Z,-6.10
2018-03-02T08:35:40.982Z,-6.50
2018-03-02T08:38:07.364Z,-6.60
2018-03-02T08:40:33.779Z,-6.20
2018-03-02T08:43:00.491Z,-5.50
2018-03-02T08:45:26.869Z,-5.70
2018-03-02T08:47:53.244Z,-5.90
2018-03-02T08:50:19.603Z,-6.20
2018-03-02T08:52:45.961Z,-5.90
2018-03-02T08:55:13.060Z,-6.10
2018-03-02T08:57:39.439Z,-6.10
2018-03-02T09:00:05.820Z,-6.30
2018-03-02T09:02:32.201Z,-6.30
2018-03-02T09:04:58.632Z,-6.10
2018-03-02T09:07:25.773Z,-6.20
2018-03-02T09:09:52.875Z,-6.10
2018-03-02T09:12:19.231Z,-6.20
2018-03-02T09:14:45.603Z,-5.90
2018-03-02T09:17:11.967Z,-6.00
2018-03-02T09:19:38.383Z,-6.20
2018-03-02T09:22:04.771Z,-6.50
2018-03-02T09:24:32.079Z,-5.90
2018-03-02T09:26:58.460Z,-5.90
2018-03-02T09:29:25.606Z,-5.90
2018-03-02T09:31:52.705Z,-5.80
2018-03-02T09:34:19.108Z,-5.80
2018-03-02T09:36:45.558Z,-5.30
2018-03-02T09:39:11.950Z,-5.20
2018-03-02T09:41:39.061Z,-5.80
2018-03-02T09:44:11.575Z,-5.80
2018-03-02T09:46:38.732Z,-5.40
2018-03-02T09:49:05.087Z,-5.40
2018-03-02T09:51:31.510Z,-5.10
2018-03-02T09:53:57.950Z,-5.30
2018-03-02T09:56:24.312Z,-5.30
2018-03-02T09:58:50.675Z,-5.30
2018-03-02T10:01:17.084Z,-5.80
2018-03-02T10:03:43.513Z,-5.70
2018-03-02T10:06:09.928Z,-5.70
2018-03-02T10:08:36.317Z,-5.50
2018-03-02T10:11:03.430Z,-5.50
2018-03-02T10:13:29.847Z,-5.50
2018-03-02T10:15:56.279Z,-5.10
2018-03-02T10:18:22.691Z,-5.20
2018-03-02T10:20:49.114Z,-5.20
2018-03-02T10:23:15.483Z,-5.50
2018-03-02T10:25:41.886Z,-5.50
2018-03-02T10:28:08.316Z,-5.50
2018-03-02T10:30:34.732Z,-5.40
2018-03-02T10:33:01.205Z,-5.30
2018-03-02T10:35:27.612Z,-5.20
2018-03-02T10:37:54.012Z,-5.00
2018-03-02T10:40:21.122Z,-5.50
2018-03-02T10:42:47.471Z,-5.60
2018-03-02T10:45:13.862Z,-5.50
2018-03-02T10:47:40.349Z,-5.50
2018-03-02T10:50:06.714Z,-5.60
2018-03-02T10:52:33.110Z,-6.00
2018-03-02T10:54:59.731Z,-5.70
2018-03-02T10:57:26.112Z,-5.50
2018-03-02T10:59:52.488Z,-5.70
2018-03-02T11:02:20.689Z,-5.90
2018-03-02T11:04:47.051Z,-5.70
2018-03-02T11:07:13.443Z,-5.40
2018-03-02T11:09:39.894Z,-5.00
2018-03-02T11:12:06.999Z,-5.50
2018-03-02T11:14:33.352Z,-5.50
2018-03-02T11:16:59.733Z,-5.50
2018-03-02T11:19:26.115Z,-5.20
2018-03-02T11:21:52.515Z,-5.30
2018-03-02T11:24:18.922Z,-5.20
2018-03-02T11:26:45.331Z,-5.40
2018-03-02T11:31:50.174Z,-5.30
2018-03-02T11:34:16.548Z,-4.90
2018-03-02T11:36:42.915Z,-5.00
2018-03-02T11:39:09.296Z,-4.50
2018-03-02T11:41:35.691Z,-4.20
2018-03-02T11:44:02.056Z,-5.20
2018-03-02T11:46:28.411Z,-4.80
2018-03-02T11:48:54.834Z,-4.30
2018-03-02T11:51:21.196Z,-4.50
2018-03-02T11:53:47.570Z,-4.80
2018-03-02T11:56:14.689Z,-5.00
2018-03-02T11:58:41.882Z,-4.40
2018-03-02T12:01:08.239Z,-4.50
2018-03-02T12:03:34.610Z,-3.80
2018-03-02T12:06:00.980Z,-3.90
2018-03-02T12:08:27.331Z,-4.00
2018-03-02T12:10:53.716Z,-3.90
2018-03-02T12:13:20.825Z,-4.20
2018-03-02T12:15:47.188Z,-4.20
2018-03-02T12:18:13.578Z,-4.20
2018-03-02T12:20:39.960Z,-4.30
2018-03-02T12:23:06.422Z,-4.00
2018-03-02T12:25:32.825Z,-4.10
2018-03-02T12:27:59.984Z,-4.70
2018-03-02T12:30:27.118Z,-4.50
2018-03-02T12:32:53.477Z,-4.50
2018-03-02T12:35:20.581Z,-4.50
2018-03-02T12:37:48.418Z,-4.60
2018-03-02T12:40:14.785Z,-4.60
2018-03-02T12:42:41.154Z,-4.80
2018-03-02T12:45:08.280Z,-4.90
2018-03-02T12:47:35.384Z,-4.80
2018-03-02T12:50:02.595Z,-4.80
2018-03-02T12:52:29.752Z,-4.60
2018-03-02T12:54:56.145Z,-4.60
2018-03-02T12:57:22.595Z,-4.70
2018-03-02T12:59:49.731Z,-4.70
2018-03-02T13:02:16.094Z,-4.80
2018-03-02T13:04:42.536Z,-4.50
2018-03-02T13:07:08.918Z,-4.30
2018-03-02T13:09:35.276Z,-4.40
2018-03-02T13:12:02.405Z,-4.70
2018-03-02T13:14:28.771Z,-4.70
2018-03-02T13:16:56.266Z,-4.70
2018-03-02T13:19:22.638Z,-4.70
2018-03-02T13:21:49.762Z,-4.80
2018-03-02T13:24:16.400Z,-4.80
2018-03-02T13:26:55.046Z,-4.80
2018-03-02T13:29:22.166Z,-4.70
2018-03-02T13:31:48.567Z,-4.70
2018-03-02T13:34:27.102Z,-4.80
2018-03-02T13:36:53.464Z,-4.60
2018-03-02T13:39:32.085Z,-4.60
2018-03-02T13:42:06.390Z,-4.30
2018-03-02T13:44:32.816Z,-4.20
2018-03-02T13:47:00.278Z,-4.30
2018-03-02T13:49:39.755Z,-4.50
2018-03-02T13:52:06.175Z,-4.60
2018-03-02T13:54:33.298Z,-4.20
2018-03-02T13:57:11.990Z,-4.30
2018-03-02T13:59:38.419Z,-4.30
2018-03-02T14:02:04.772Z,-4.10
2018-03-02T14:04:43.311Z,-4.10
2018-03-02T14:07:09.698Z,-4.10
2018-03-02T14:09:36.699Z,-4.20
2018-03-02T14:12:03.832Z,-4.40
2018-03-02T14:14:30.990Z,-4.60
2018-03-02T14:16:57.350Z,-4.60
2018-03-02T14:19:23.706Z,-4.70
2018-03-02T14:21:50.129Z,-5.00
2018-03-02T14:24:16.542Z,-4.80
2018-03-02T14:26:43.630Z,-4.50
2018-03-02T14:29:10.007Z,-4.50
2018-03-02T14:31:37.111Z,-4.80
2018-03-02T14:34:03.515Z,-4.80
2018-03-02T14:36:29.920Z,-4.60
2018-03-02T14:38:57.051Z,-5.10
2018-03-02T14:41:23.438Z,-5.10
2018-03-02T14:43:49.819Z,-5.10
2018-03-02T14:46:16.942Z,-4.30
2018-03-02T14:48:43.286Z,-4.30
2018-03-02T14:51:09.666Z,-4.20
2018-03-02T14:53:36.914Z,-4.10
2018-03-02T14:56:03.491Z,-3.90
2018-03-02T14:58:29.880Z,-3.90
2018-03-02T15:00:56.248Z,-4.30
2018-03-02T15:03:22.644Z,-4.30
2018-03-02T15:05:49.050Z,-4.20
2018-03-02T15:08:15.428Z,-3.90
2018-03-02T15:10:41.850Z,-3.90
2018-03-02T15:13:08.205Z,-4.20
2018-03-02T15:15:34.559Z,-4.60
2018-03-02T15:18:02.422Z,-4.80
2018-03-02T15:20:30.270Z,-4.50
2018-03-02T15:22:56.638Z,-4.50
2018-03-02T15:25:23.765Z,-4.40
2018-03-02T15:27:50.127Z,-4.40
2018-03-02T15:30:17.250Z,-4.40
2018-03-02T15:32:43.636Z,-4.40
2018-03-02T15:35:10.099Z,-4.10
2018-03-02T15:37:37.994Z,-4.10
2018-03-02T15:40:04.419Z,-4.10
2018-03-02T15:42:32.507Z,-4.30
2018-03-02T15:44:59.590Z,-4.20
2018-03-02T15:47:26.133Z,-4.20
2018-03-02T15:49:52.543Z,-4.10
2018-03-02T15:52:19.676Z,-4.30
2018-03-02T15:54:46.780Z,-4.60
2018-03-02T15:57:13.183Z,-4.60
2018-03-02T15:59:39.562Z,-4.60
2018-03-02T16:02:06.260Z,-4.40
2018-03-02T16:04:32.650Z,-4.00
2018-03-02T16:06:59.015Z,-4.40
2018-03-02T16:09:25.419Z,-4.10
2018-03-02T16:11:52.559Z,-3.90
2018-03-02T16:14:18.953Z,-4.00
2018-03-02T16:16:46.142Z,-4.30
2018-03-02T16:19:12.555Z,-4.40
2018-03-02T16:21:38.919Z,-4.50
2018-03-02T16:24:05.306Z,-4.70
2018-03-02T16:26:31.684Z,-4.60
2018-03-02T16:28:58.786Z,-4.70
2018-03-02T16:31:25.279Z,-4.70
2018-03-02T16:33:51.657Z,-4.80
2018-03-02T16:36:18.454Z,-4.90
2018-03-02T16:38:45.481Z,-4.90
2018-03-02T16:41:13.510Z,-4.70
2018-03-02T16:43:39.961Z,-4.70
2018-03-02T16:46:06.397Z,-4.50
2018-03-02T16:48:34.299Z,-4.90
2018-03-02T16:51:00.723Z,-4.90
2018-03-02T16:53:27.156Z,-4.60
2018-03-02T16:55:53.632Z,-4.70
2018-03-02T16:58:19.988Z,-4.50
2018-03-02T17:00:46.363Z,-4.50
2018-03-02T17:03:12.772Z,-4.40
2018-03-02T17:05:39.147Z,-4.70
2018-03-02T17:08:05.555Z,-4.90
2018-03-02T17:10:32.686Z,-4.70
2018-03-02T17:12:59.819Z,-4.40
2018-03-02T17:15:26.231Z,-4.40
2018-03-02T17:17:52.579Z,-4.40
2018-03-02T17:20:18.961Z,-4.30
2018-03-02T17:22:45.363Z,-4.30
2018-03-02T17:25:12.486Z,-3.80
2018-03-02T17:27:38.842Z,-3.80
2018-03-02T17:30:05.994Z,-3.70
2018-03-02T17:32:33.114Z,-3.60
2018-03-02T17:34:59.462Z,-3.60
2018-03-02T17:37:25.818Z,-3.60
2018-03-02T17:39:52.991Z,-3.50
2018-03-02T17:42:19.366Z,-3.50
2018-03-02T17:44:45.719Z,-3.50
2018-03-02T17:47:12.830Z,-3.50
2018-03-02T17:49:39.243Z,-3.50
2018-03-02T17:52:05.600Z,-3.50
2018-03-02T17:54:31.986Z,-3.80
2018-03-02T17:56:58.360Z,-3.70
2018-03-02T17:59:24.738Z,-3.50
2018-03-02T18:01:51.110Z,-3.50
2018-03-02T18:04:17.466Z,-3.60
2018-03-02T18:06:43.818Z,-3.50
2018-03-02T18:09:10.945Z,-3.40
2018-03-02T18:11:38.794Z,-3.30
2018-03-02T18:14:05.202Z,-3.40
2018-03-02T18:16:31.567Z,-3.40
2018-03-02T18:18:58.662Z,-3.30
2018-03-02T18:21:25.882Z,-3.30
2018-03-02T18:23:53.783Z,-3.40
2018-03-02T18:26:20.192Z,-3.40
2018-03-02T18:28:47.320Z,-3.20
2018-03-02T18:31:13.704Z,-3.30
2018-03-02T18:33:40.090Z,-3.30
2018-03-02T18:36:06.484Z,-3.40
2018-03-02T18:38:32.896Z,-3.30
2018-03-02T18:40:59.276Z,-3.20
2018-03-02T18:43:26.440Z,-3.40
2018-03-02T18:45:52.830Z,-3.40
2018-03-02T18:48:19.236Z,-3.30
2018-03-02T18:50:45.672Z,-3.40
2018-03-02T18:53:12.101Z,-3.40
2018-03-02T18:55:38.485Z,-3.30
2018-03-02T18:58:04.868Z,-3.20
2018-03-02T19:00:31.272Z,-3.20
2018-03-02T19:02:58.435Z,-3.00
2018-03-02T19:05:25.593Z,-3.00
2018-03-02T19:07:51.979Z,-3.00
2018-03-02T19:10:18.377Z,-3.00
2018-03-02T19:12:44.746Z,-3.00
2018-03-02T19:15:11.124Z,-3.10
2018-03-02T19:17:37.505Z,-3.20
2018-03-02T19:20:03.946Z,-3.20
2018-03-02T19:22:30.344Z,-3.20
2018-03-02T19:24:56.786Z,-3.20
2018-03-02T19:27:23.193Z,-3.20
2018-03-02T19:29:49.600Z,-3.20
2018-03-02T19:32:16.693Z,-3.30
2018-03-02T19:34:43.163Z,-3.30
2018-03-02T19:37:09.538Z,-3.30
2018-03-02T19:39:35.898Z,-3.20
2018-03-02T19:42:02.259Z,-3.30
2018-03-02T19:44:28.687Z,-3.20
2018-03-02T19:46:55.093Z,-3.20
2018-03-02T19:49:21.442Z,-3.30
2018-03-02T19:51:47.861Z,-3.30
2018-03-02T19:54:15.150Z,-3.30
2018-03-02T19:56:42.251Z,-3.40
2018-03-02T19:59:08.617Z,-3.40
2018-03-02T20:01:34.976Z,-3.30
2018-03-02T20:04:02.196Z,-3.00
2018-03-02T20:06:28.779Z,-3.10
2018-03-02T20:08:55.143Z,-3.10
2018-03-02T20:11:21.507Z,-3.20
2018-03-02T20:13:47.874Z,-3.30
2018-03-02T20:16:14.294Z,-3.30
2018-03-02T20:18:41.410Z,-3.30
2018-03-02T20:21:07.786Z,-3.20
2018-03-02T20:23:34.151Z,-3.30
2018-03-02T20:26:01.265Z,-3.30
2018-03-02T20:28:27.756Z,-3.30
2018-03-02T20:30:54.877Z,-3.30
2018-03-02T20:33:21.243Z,-3.30
2018-03-02T20:35:48.382Z,-3.30
2018-03-02T20:38:14.785Z,-3.30
2018-03-02T20:40:41.150Z,-3.20
2018-03-02T20:43:08.261Z,-3.20
2018-03-02T20:45:34.661Z,-3.20
2018-03-02T20:48:01.779Z,-3.10
2018-03-02T20:50:28.162Z,-3.20
2018-03-02T20:52:54.542Z,-3.20
2018-03-02T20:55:20.904Z,-3.30
2018-03-02T20:57:48.055Z,-3.20
2018-03-02T21:00:14.415Z,-3.20
2018-03-02T21:02:40.895Z,-3.30
2018-03-02T21:05:07.266Z,-3.40
2018-03-02T21:07:33.660Z,-3.20
2018-03-02T21:10:00.027Z,-3.10
2018-03-02T21:12:26.393Z,-3.10
2018-03-02T21:14:52.738Z,-3.10
2018-03-02T21:17:19.118Z,-3.20
2018-03-02T21:19:45.479Z,-3.40
2018-03-02T21:22:11.895Z,-3.30
2018-03-02T21:24:38.272Z,-3.40
2018-03-02T21:27:04.631Z,-3.40
2018-03-02T21:29:31.732Z,-3.20
2018-03-02T21:31:58.138Z,-3.20
2018-03-02T21:34:24.517Z,-3.20
2018-03-02T21:36:50.877Z,-3.20
2018-03-02T21:39:17.236Z,-3.20
2018-03-02T21:41:43.618Z,-3.20
2018-03-02T21:44:10.734Z,-3.30
2018-03-02T21:46:37.097Z,-3.30
2018-03-02T21:49:04.193Z,-3.40
2018-03-02T21:51:30.572Z,-3.40
2018-03-02T21:53:56.930Z,-3.40
2018-03-02T21:56:23.316Z,-3.40
2018-03-02T21:58:49.713Z,-3.30
2018-03-02T22:01:16.085Z,-3.10
2018-03-02T22:03:42.457Z,-3.00
2018-03-02T22:06:08.842Z,-3.00
2018-03-02T22:08:35.231Z,-2.90
2018-03-02T22:11:01.637Z,-3.00
2018-03-02T22:13:28.795Z,-3.00
2018-03-02T22:15:55.195Z,-3.00
2018-03-02T22:18:21.564Z,-3.00
2018-03-02T22:20:48.730Z,-3.20
2018-03-02T22:23:15.838Z,-3.10
2018-03-02T22:25:42.957Z,-3.10
2018-03-02T22:28:09.323Z,-3.10
2018-03-02T22:30:36.432Z,-3.10
2018-03-02T22:33:02.859Z,-3.10
2018-03-02T22:35:29.278Z,-3.10
2018-03-02T22:37:55.660Z,-3.00
2018-03-02T22:40:23.502Z,-3.00
2018-03-02T22:42:49.860Z,-3.00
2018-03-02T22:45:16.239Z,-3.00
2018-03-02T22:47:42.620Z,-3.10
2018-03-02T22:50:09.738Z,-3.40
2018-03-02T22:52:36.117Z,-3.40
2018-03-02T22:55:03.235Z,-3.20
2018-03-02T22:57:29.618Z,-3.20
2018-03-02T22:59:55.999Z,-3.30
2018-03-02T23:02:22.373Z,-3.40
2018-03-02T23:04:48.741Z,-3.30
2018-03-02T23:07:15.102Z,-3.20
2018-03-02T23:09:41.518Z,-3.20
2018-03-02T23:12:07.878Z,-3.20
2018-03-02T23:14:35.005Z,-3.40
2018-03-02T23:17:01.378Z,-3.30
2018-03-02T23:19:27.744Z,-3.30
2018-03-02T23:21:54.112Z,-3.30
2018-03-02T23:24:20.486Z,-3.30
2018-03-02T23:26:46.850Z,-3.30
2018-03-02T23:29:13.210Z,-3.60
2018-03-02T23:31:40.329Z,-3.30
2018-03-02T23:34:06.686Z,-3.30
2018-03-02T23:36:33.798Z,-3.30
2018-03-02T23:39:00.158Z,-3.20
2018-03-02T23:41:26.603Z,-3.20
2018-03-02T23:43:53.696Z,-3.40
2018-03-02T23:46:20.083Z,-3.40
2018-03-02T23:48:47.197Z,-3.30
2018-03-02T23:51:13.626Z,-3.40
2018-03-02T23:53:39.995Z,-3.40
2018-03-02T23:56:07.140Z,-3.40
2018-03-02T23:58:34.252Z,-3.40
